Details From KCNO - Chino
To KPSP - Palm Springs Intl
Flight Number -
Tags generated
Created
Modified
Stats Distance 57 nm / 106 km
Max Altitude 6,500 ft / 1,981 m
Waypoints 3
Social Downloads 2
Likes 0
Share VATSIM

Download

Looking for another format? Having issues loading an existing format? Contact us
Advertisement - Login to hide

Notes

Basic altitude profile: - Ascent Rate: 2500ft/min - Ascent Speed: 250kts - Cruise Altitude: 35000ft - Cruise Speed: 420kts - Descent Rate: 1500ft/min - Descent Speed: 250kts Options: - Use NATs: yes - Use PACOTS: yes - Use low airways: yes - Use high airways: yes

Route

KCNO SETER KPSP

ID Type Via Altitude Latitude Longitude Leg Dist Tot Dist Heading (true) Name
O KCNO APT - 0 ft / 0 m 33.97495˚ -117.63668˚ - 0 nm - Chino
SETER FIX - 6,500 ft / 1,981 m 33.90101˚ -117.10913˚ 26 nm 26 nm 99° / 100° -
O KPSP APT - 0 ft / 0 m 33.82968˚ -116.50622˚ 30 nm 57 nm 98° / 98° Palm Springs Intl

Altitude Profile

Advertisement - Login to hide

KCNO

Details ICAO KCNO
Name Chino
Region United States
Timezone America/Los_Angeles (UTC-8.0)
Stats Elevation 650 ft / 198 m (AMSL)
Location 33.974954° -117.636684°
Runways 3
Magnetic Variation 11.854° E

METAR

KCNO 181353Z AUTO 04004KT 7SM CLR 07/M04 A3014 RMK AO2 SLP205 T00721039

Decode

TAF

Not found

Departure Runways

ID Width Length Bearing (true) Bearing (mag) Surface Threshold Offset Overrun Length
03 151 ft / 46 m 4,921 ft / 1,500 m 44.28° 32.43° Asphalt 0 ft / 0 m 951 ft / 290 m
08L 151 ft / 46 m 4,849 ft / 1,478 m 89.42° 77.57° Asphalt 0 ft / 0 m 200 ft / 61 m
08R 151 ft / 46 m 6,987 ft / 2,130 m 89.42° 77.57° Asphalt 0 ft / 0 m 200 ft / 61 m
21 151 ft / 46 m 4,921 ft / 1,500 m 224.28° 212.43° Asphalt 0 ft / 0 m 351 ft / 107 m
26L 151 ft / 46 m 6,987 ft / 2,130 m 269.43° 257.58° Asphalt 0 ft / 0 m 220 ft / 67 m
26R 151 ft / 46 m 4,849 ft / 1,478 m 269.42° 257.57° Asphalt 0 ft / 0 m 0 ft / 0 m

KPSP

Details ICAO KPSP (PSP)
Name Palm Springs Intl
Region United States
Timezone America/Los_Angeles (UTC-8.0)
Stats Elevation 477 ft / 145 m (AMSL)
Location 33.829677° -116.506218°
Runways 2
Magnetic Variation 11.579° E

METAR

KPSP 181353Z 33005KT 10SM CLR 11/M06 A3014 RMK AO2 SLP207 T01061061

Decode

TAF

TAF KPSP 181120Z 1812/1912 VRB06KT P6SM SKC

Decode

Destination Runways

ID Width Length Bearing (true) Bearing (mag) Surface Threshold Offset Overrun Length
13L 75 ft / 23 m 4,958 ft / 1,511 m 143.52° 131.94° Asphalt 0 ft / 0 m 151 ft / 46 m
13R 151 ft / 46 m 10,012 ft / 3,052 m 143.52° 131.94° Asphalt 2,999 ft / 914 m 200 ft / 61 m
31L 151 ft / 46 m 10,012 ft / 3,052 m 323.53° 311.95° Asphalt 1,499 ft / 457 m 200 ft / 61 m
31R 75 ft / 23 m 4,958 ft / 1,511 m 323.53° 311.95° Asphalt 0 ft / 0 m 151 ft / 46 m

Popular Alternatives